sensor_id;sensor_type;location;lat;lon;timestamp;pressure;altitude;pressure_sealevel;temperature;humidity
10261;BME280;5175;42.606;23.388;2023-06-14T00:02:18;93510.28;;;16.24;100.00
10261;BME280;5175;42.606;23.388;2023-06-14T00:04:44;93494.31;;;16.27;100.00
10261;BME280;5175;42.606;23.388;2023-06-14T00:07:13;93501.94;;;16.17;100.00
10261;BME280;5175;42.606;23.388;2023-06-14T00:09:42;93504.91;;;16.15;100.00
10261;BME280;5175;42.606;23.388;2023-06-14T00:12:10;93492.91;;;15.96;100.00
10261;BME280;5175;42.606;23.388;2023-06-14T00:14:38;93494.03;;;16.03;100.00
10261;BME280;5175;42.606;23.388;2023-06-14T00:17:05;93492.63;;;15.89;100.00
10261;BME280;5175;42.606;23.388;2023-06-14T00:19:32;93495.44;;;15.92;100.00
10261;BME280;5175;42.606;23.388;2023-06-14T00:22:00;93504.63;;;16.00;100.00
10261;BME280;5175;42.606;23.388;2023-06-14T00:24:28;93484.38;;;15.94;100.00
10261;BME280;5175;42.606;23.388;2023-06-14T00:26:55;93484.50;;;15.97;100.00
10261;BME280;5175;42.606;23.388;2023-06-14T00:29:23;93479.00;;;15.94;100.00
10261;BME280;5175;42.606;23.388;2023-06-14T00:31:50;93478.03;;;15.98;100.00
10261;BME280;5175;42.606;23.388;2023-06-14T00:34:17;93448.47;;;15.64;100.00
10261;BME280;5175;42.606;23.388;2023-06-14T00:36:44;93474.13;;;15.79;100.00
10261;BME280;5175;42.606;23.388;2023-06-14T00:39:11;93475.84;;;15.83;100.00
10261;BME280;5175;42.606;23.388;2023-06-14T00:41:39;93473.63;;;15.85;100.00
10261;BME280;5175;42.606;23.388;2023-06-14T00:44:06;93475.22;;;15.78;100.00
10261;BME280;5175;42.606;23.388;2023-06-14T00:46:34;93472.66;;;15.90;100.00
10261;BME280;5175;42.606;23.388;2023-06-14T00:49:04;93477.25;;;16.06;100.00
10261;BME280;5175;42.606;23.388;2023-06-14T00:51:31;93473.22;;;16.29;100.00
10261;BME280;5175;42.606;23.388;2023-06-14T00:53:58;93478.72;;;16.42;100.00
10261;BME280;5175;42.606;23.388;2023-06-14T00:56:26;93471.97;;;16.36;100.00
10261;BME280;5175;42.606;23.388;2023-06-14T00:58:56;93474.66;;;16.27;100.00
10261;BME280;5175;42.606;23.388;2023-06-14T01:01:23;93469.28;;;16.18;100.00
10261;BME280;5175;42.606;23.388;2023-06-14T01:03:51;93464.88;;;16.14;100.00
10261;BME280;5175;42.606;23.388;2023-06-14T01:06:22;93470.72;;;16.16;100.00
10261;BME280;5175;42.606;23.388;2023-06-14T01:09:03;93470.75;;;16.07;100.00
10261;BME280;5175;42.606;23.388;2023-06-14T01:11:38;93465.38;;;15.99;100.00
10261;BME280;5175;42.606;23.388;2023-06-14T01:14:07;93453.69;;;15.78;100.00
10261;BME280;5175;42.606;23.388;2023-06-14T01:16:38;93463.50;;;15.74;100.00
10261;BME280;5175;42.606;23.388;2023-06-14T01:19:10;93460.50;;;15.75;100.00
10261;BME280;5175;42.606;23.388;2023-06-14T01:21:39;93466.34;;;15.94;100.00
10261;BME280;5175;42.606;23.388;2023-06-14T01:24:08;93467.09;;;16.03;100.00
10261;BME280;5175;42.606;23.388;2023-06-14T01:26:36;93474.25;;;15.99;100.00
10261;BME280;5175;42.606;23.388;2023-06-14T01:29:11;93464.75;;;15.93;100.00
10261;BME280;5175;42.606;23.388;2023-06-14T01:31:43;93464.41;;;16.03;100.00
10261;BME280;5175;42.606;23.388;2023-06-14T01:34:11;93462.69;;;16.07;100.00
10261;BME280;5175;42.606;23.388;2023-06-14T01:36:41;93464.25;;;16.08;100.00
10261;BME280;5175;42.606;23.388;2023-06-14T01:39:11;93465.84;;;15.92;100.00
10261;BME280;5175;42.606;23.388;2023-06-14T01:41:40;93466.81;;;15.96;100.00
10261;BME280;5175;42.606;23.388;2023-06-14T01:44:08;93442.47;;;15.76;100.00
10261;BME280;5175;42.606;23.388;2023-06-14T01:46:35;93469.97;;;16.07;100.00
10261;BME280;5175;42.606;23.388;2023-06-14T01:49:02;93461.09;;;16.06;100.00
10261;BME280;5175;42.606;23.388;2023-06-14T01:51:29;93457.94;;;16.04;100.00
10261;BME280;5175;42.606;23.388;2023-06-14T01:53:57;93466.66;;;15.93;100.00
10261;BME280;5175;42.606;23.388;2023-06-14T01:56:29;93461.25;;;16.01;100.00
10261;BME280;5175;42.606;23.388;2023-06-14T01:59:00;93458.06;;;16.08;100.00
10261;BME280;5175;42.606;23.388;2023-06-14T02:01:27;93456.69;;;16.02;100.00
10261;BME280;5175;42.606;23.388;2023-06-14T02:03:53;93457.31;;;16.07;100.00
10261;BME280;5175;42.606;23.388;2023-06-14T02:06:20;93462.34;;;16.17;100.00
10261;BME280;5175;42.606;23.388;2023-06-14T02:08:47;93474.84;;;16.22;100.00
10261;BME280;5175;42.606;23.388;2023-06-14T02:11:14;93473.56;;;16.19;100.00
10261;BME280;5175;42.606;23.388;2023-06-14T02:13:42;93475.31;;;16.15;100.00
10261;BME280;5175;42.606;23.388;2023-06-14T02:16:09;93471.22;;;16.09;100.00
10261;BME280;5175;42.606;23.388;2023-06-14T02:18:36;93466.66;;;16.01;100.00
10261;BME280;5175;42.606;23.388;2023-06-14T02:21:03;93481.53;;;15.99;100.00
10261;BME280;5175;42.606;23.388;2023-06-14T02:23:30;93478.69;;;15.87;100.00
10261;BME280;5175;42.606;23.388;2023-06-14T02:25:57;93484.69;;;16.01;100.00
10261;BME280;5175;42.606;23.388;2023-06-14T02:28:24;93485.47;;;16.01;100.00
10261;BME280;5175;42.606;23.388;2023-06-14T02:30:52;93486.13;;;15.98;100.00
10261;BME280;5175;42.606;23.388;2023-06-14T02:33:19;93483.91;;;15.92;100.00
10261;BME280;5175;42.606;23.388;2023-06-14T02:35:47;93489.59;;;15.90;100.00
10261;BME280;5175;42.606;23.388;2023-06-14T02:38:14;93485.34;;;15.89;100.00
10261;BME280;5175;42.606;23.388;2023-06-14T02:40:41;93490.84;;;16.01;100.00
10261;BME280;5175;42.606;23.388;2023-06-14T02:43:08;93488.75;;;16.15;100.00
10261;BME280;5175;42.606;23.388;2023-06-14T02:45:35;93494.97;;;16.07;100.00
10261;BME280;5175;42.606;23.388;2023-06-14T02:48:03;93486.56;;;16.00;100.00
10261;BME280;5175;42.606;23.388;2023-06-14T02:50:30;93486.59;;;15.83;100.00
10261;BME280;5175;42.606;23.388;2023-06-14T02:52:57;93500.38;;;15.82;100.00
10261;BME280;5175;42.606;23.388;2023-06-14T02:55:24;93496.91;;;15.81;100.00
10261;BME280;5175;42.606;23.388;2023-06-14T02:57:51;93494.69;;;15.83;100.00
10261;BME280;5175;42.606;23.388;2023-06-14T03:00:19;93500.84;;;15.84;100.00
10261;BME280;5175;42.606;23.388;2023-06-14T03:02:46;93504.19;;;15.89;100.00
10261;BME280;5175;42.606;23.388;2023-06-14T03:05:14;93503.06;;;15.82;100.00
10261;BME280;5175;42.606;23.388;2023-06-14T03:07:41;93498.47;;;15.91;100.00
10261;BME280;5175;42.606;23.388;2023-06-14T03:10:10;93499.09;;;15.96;100.00
10261;BME280;5175;42.606;23.388;2023-06-14T03:12:38;93498.31;;;15.96;100.00
10261;BME280;5175;42.606;23.388;2023-06-14T03:15:06;93500.38;;;15.99;100.00
10261;BME280;5175;42.606;23.388;2023-06-14T03:17:34;93498.13;;;16.01;100.00
10261;BME280;5175;42.606;23.388;2023-06-14T03:20:05;93499.72;;;16.02;100.00
10261;BME280;5175;42.606;23.388;2023-06-14T03:22:34;93505.88;;;16.11;100.00
10261;BME280;5175;42.606;23.388;2023-06-14T03:25:01;93513.00;;;16.15;100.00
10261;BME280;5175;42.606;23.388;2023-06-14T03:27:29;93516.00;;;16.22;100.00
10261;BME280;5175;42.606;23.388;2023-06-14T03:29:56;93509.38;;;16.20;100.00
10261;BME280;5175;42.606;23.388;2023-06-14T03:32:23;93508.56;;;16.19;100.00
10261;BME280;5175;42.606;23.388;2023-06-14T03:34:50;93516.31;;;16.29;100.00
10261;BME280;5175;42.606;23.388;2023-06-14T03:37:17;93502.72;;;16.17;100.00
10261;BME280;5175;42.606;23.388;2023-06-14T03:39:46;93503.31;;;16.23;100.00
10261;BME280;5175;42.606;23.388;2023-06-14T03:42:13;93512.03;;;16.28;100.00
10261;BME280;5175;42.606;23.388;2023-06-14T03:44:40;93500.97;;;16.21;100.00
10261;BME280;5175;42.606;23.388;2023-06-14T03:47:07;93513.91;;;16.28;100.00
10261;BME280;5175;42.606;23.388;2023-06-14T03:49:34;93515.16;;;16.39;100.00
10261;BME280;5175;42.606;23.388;2023-06-14T03:52:04;93514.38;;;16.47;100.00
10261;BME280;5175;42.606;23.388;2023-06-14T03:54:33;93516.59;;;16.45;100.00
10261;BME280;5175;42.606;23.388;2023-06-14T03:57:02;93515.94;;;16.57;100.00
10261;BME280;5175;42.606;23.388;2023-06-14T03:59:29;93511.53;;;16.52;100.00
10261;BME280;5175;42.606;23.388;2023-06-14T04:01:56;93518.94;;;16.64;100.00
10261;BME280;5175;42.606;23.388;2023-06-14T04:04:22;93525.09;;;16.64;100.00
10261;BME280;5175;42.606;23.388;2023-06-14T04:06:54;93529.72;;;16.64;100.00
10261;BME280;5175;42.606;23.388;2023-06-14T04:09:22;93510.25;;;16.58;100.00
10261;BME280;5175;42.606;23.388;2023-06-14T04:11:50;93515.16;;;16.48;100.00
10261;BME280;5175;42.606;23.388;2023-06-14T04:14:19;93528.72;;;16.77;100.00
10261;BME280;5175;42.606;23.388;2023-06-14T04:16:46;93525.53;;;16.83;100.00
10261;BME280;5175;42.606;23.388;2023-06-14T04:19:13;93525.06;;;16.81;100.00
10261;BME280;5175;42.606;23.388;2023-06-14T04:21:40;93525.56;;;16.75;100.00
10261;BME280;5175;42.606;23.388;2023-06-14T04:24:07;93531.22;;;16.82;100.00
10261;BME280;5175;42.606;23.388;2023-06-14T04:26:39;93525.81;;;16.90;100.00
10261;BME280;5175;42.606;23.388;2023-06-14T04:29:06;93531.81;;;16.96;100.00
10261;BME280;5175;42.606;23.388;2023-06-14T04:31:34;93525.31;;;16.97;100.00
10261;BME280;5175;42.606;23.388;2023-06-14T04:34:03;93531.47;;;16.98;100.00
10261;BME280;5175;42.606;23.388;2023-06-14T04:36:31;93524.84;;;16.95;100.00
10261;BME280;5175;42.606;23.388;2023-06-14T04:39:00;93519.63;;;16.90;100.00
10261;BME280;5175;42.606;23.388;2023-06-14T04:41:28;93534.31;;;17.10;100.00
10261;BME280;5175;42.606;23.388;2023-06-14T04:43:56;93528.53;;;17.20;100.00
10261;BME280;5175;42.606;23.388;2023-06-14T04:46:26;93542.72;;;17.37;100.00
10261;BME280;5175;42.606;23.388;2023-06-14T04:48:55;93537.00;;;17.39;100.00
10261;BME280;5175;42.606;23.388;2023-06-14T05:09:37;93548.63;;;18.43;100.00
10261;BME280;5175;42.606;23.388;2023-06-14T05:12:05;93541.13;;;18.48;100.00
10261;BME280;5175;42.606;23.388;2023-06-14T05:14:33;93538.88;;;18.50;100.00
10261;BME280;5175;42.606;23.388;2023-06-14T05:17:00;93550.94;;;18.32;100.00
10261;BME280;5175;42.606;23.388;2023-06-14T05:19:27;93543.63;;;18.53;100.00
10261;BME280;5175;42.606;23.388;2023-06-14T05:21:54;93554.47;;;18.65;100.00
10261;BME280;5175;42.606;23.388;2023-06-14T05:24:21;93552.72;;;18.94;100.00
10261;BME280;5175;42.606;23.388;2023-06-14T05:26:49;93549.63;;;18.71;100.00
10261;BME280;5175;42.606;23.388;2023-06-14T05:29:16;93565.72;;;18.67;100.00
10261;BME280;5175;42.606;23.388;2023-06-14T05:31:43;93533.03;;;18.28;100.00
10261;BME280;5175;42.606;23.388;2023-06-14T05:34:10;93581.91;;;18.55;100.00
10261;BME280;5175;42.606;23.388;2023-06-14T05:36:36;93586.84;;;18.53;100.00
10261;BME280;5175;42.606;23.388;2023-06-14T05:39:03;93575.59;;;18.31;100.00
10261;BME280;5175;42.606;23.388;2023-06-14T05:41:31;93574.50;;;18.44;100.00
10261;BME280;5175;42.606;23.388;2023-06-14T05:43:59;93582.25;;;18.33;100.00
10261;BME280;5175;42.606;23.388;2023-06-14T05:46:26;93575.84;;;18.38;100.00
10261;BME280;5175;42.606;23.388;2023-06-14T05:48:54;93573.75;;;18.23;100.00
10261;BME280;5175;42.606;23.388;2023-06-14T05:51:22;93580.72;;;18.24;100.00
10261;BME280;5175;42.606;23.388;2023-06-14T05:53:50;93580.66;;;18.32;100.00
10261;BME280;5175;42.606;23.388;2023-06-14T05:56:17;93579.75;;;18.28;100.00
10261;BME280;5175;42.606;23.388;2023-06-14T05:58:44;93583.28;;;18.41;100.00
10261;BME280;5175;42.606;23.388;2023-06-14T06:01:14;93578.00;;;18.24;100.00
10261;BME280;5175;42.606;23.388;2023-06-14T06:03:41;93576.25;;;18.48;100.00
10261;BME280;5175;42.606;23.388;2023-06-14T06:06:11;93592.25;;;18.53;100.00
10261;BME280;5175;42.606;23.388;2023-06-14T06:08:38;93588.69;;;18.41;100.00
10261;BME280;5175;42.606;23.388;2023-06-14T06:11:06;93589.56;;;18.53;100.00
10261;BME280;5175;42.606;23.388;2023-06-14T06:13:33;93592.13;;;18.50;100.00
10261;BME280;5175;42.606;23.388;2023-06-14T06:16:00;93589.25;;;18.46;100.00
10261;BME280;5175;42.606;23.388;2023-06-14T06:18:28;93601.78;;;18.71;100.00
10261;BME280;5175;42.606;23.388;2023-06-14T06:20:55;93600.91;;;18.80;100.00
10261;BME280;5175;42.606;23.388;2023-06-14T06:23:22;93603.34;;;18.72;100.00
10261;BME280;5175;42.606;23.388;2023-06-14T06:25:49;93594.44;;;18.72;100.00
10261;BME280;5175;42.606;23.388;2023-06-14T06:28:15;93596.44;;;18.96;100.00
10261;BME280;5175;42.606;23.388;2023-06-14T06:30:42;93605.06;;;18.77;100.00
10261;BME280;5175;42.606;23.388;2023-06-14T06:33:09;93607.34;;;18.87;100.00
10261;BME280;5175;42.606;23.388;2023-06-14T06:35:38;93602.72;;;18.88;100.00
10261;BME280;5175;42.606;23.388;2023-06-14T06:38:05;93614.25;;;19.09;100.00
10261;BME280;5175;42.606;23.388;2023-06-14T06:40:32;93576.47;;;18.88;100.00
10261;BME280;5175;42.606;23.388;2023-06-14T06:42:59;93620.84;;;19.20;100.00
10261;BME280;5175;42.606;23.388;2023-06-14T06:45:26;93621.03;;;19.03;100.00
10261;BME280;5175;42.606;23.388;2023-06-14T06:47:53;93615.88;;;19.22;100.00
10261;BME280;5175;42.606;23.388;2023-06-14T06:50:20;93616.88;;;19.17;100.00
10261;BME280;5175;42.606;23.388;2023-06-14T06:52:51;93624.59;;;19.52;100.00
10261;BME280;5175;42.606;23.388;2023-06-14T06:55:20;93617.06;;;19.45;100.00
10261;BME280;5175;42.606;23.388;2023-06-14T06:57:47;93615.38;;;19.41;100.00
10261;BME280;5175;42.606;23.388;2023-06-14T07:00:16;93612.97;;;19.39;100.00
10261;BME280;5175;42.606;23.388;2023-06-14T07:02:43;93620.56;;;19.58;100.00
10261;BME280;5175;42.606;23.388;2023-06-14T07:05:09;93619.09;;;19.60;100.00
10261;BME280;5175;42.606;23.388;2023-06-14T07:07:36;93623.25;;;19.94;100.00
10261;BME280;5175;42.606;23.388;2023-06-14T07:10:05;93623.13;;;20.15;100.00
10261;BME280;5175;42.606;23.388;2023-06-14T07:12:33;93625.59;;;20.32;100.00
10261;BME280;5175;42.606;23.388;2023-06-14T07:15:05;93617.88;;;20.46;100.00
10261;BME280;5175;42.606;23.388;2023-06-14T07:17:32;93629.47;;;20.58;100.00
10261;BME280;5175;42.606;23.388;2023-06-14T07:19:59;93619.31;;;20.55;100.00
10261;BME280;5175;42.606;23.388;2023-06-14T07:22:26;93616.25;;;20.57;100.00
10261;BME280;5175;42.606;23.388;2023-06-14T07:24:53;93623.56;;;20.29;100.00
10261;BME280;5175;42.606;23.388;2023-06-14T07:27:21;93616.97;;;20.42;100.00
10261;BME280;5175;42.606;23.388;2023-06-14T07:29:48;93621.66;;;20.57;100.00
10261;BME280;5175;42.606;23.388;2023-06-14T07:32:15;93619.91;;;20.77;100.00
10261;BME280;5175;42.606;23.388;2023-06-14T07:34:42;93614.56;;;20.80;100.00
10261;BME280;5175;42.606;23.388;2023-06-14T07:37:08;93621.03;;;21.03;100.00
10261;BME280;5175;42.606;23.388;2023-06-14T07:39:35;93613.81;;;21.07;100.00
10261;BME280;5175;42.606;23.388;2023-06-14T07:42:02;93618.38;;;21.35;100.00
10261;BME280;5175;42.606;23.388;2023-06-14T07:44:30;93605.25;;;21.52;100.00
10261;BME280;5175;42.606;23.388;2023-06-14T07:46:57;93627.53;;;21.89;100.00
10261;BME280;5175;42.606;23.388;2023-06-14T07:49:25;93633.47;;;21.95;100.00
10261;BME280;5175;42.606;23.388;2023-06-14T07:51:52;93623.94;;;22.35;100.00
10261;BME280;5175;42.606;23.388;2023-06-14T07:54:19;93631.59;;;22.65;100.00
10261;BME280;5175;42.606;23.388;2023-06-14T07:56:50;93645.03;;;22.77;100.00
10261;BME280;5175;42.606;23.388;2023-06-14T07:59:16;93642.47;;;22.84;100.00
10261;BME280;5175;42.606;23.388;2023-06-14T08:01:45;93648.13;;;22.94;100.00
10261;BME280;5175;42.606;23.388;2023-06-14T08:04:12;93642.38;;;23.19;100.00
10261;BME280;5175;42.606;23.388;2023-06-14T08:06:39;93645.59;;;23.43;96.96
10261;BME280;5175;42.606;23.388;2023-06-14T08:09:09;93656.91;;;23.68;97.81
10261;BME280;5175;42.606;23.388;2023-06-14T08:11:36;93667.47;;;23.70;92.13
10261;BME280;5175;42.606;23.388;2023-06-14T08:14:03;93637.78;;;23.42;96.40
10261;BME280;5175;42.606;23.388;2023-06-14T08:16:29;93671.78;;;23.32;94.07
10261;BME280;5175;42.606;23.388;2023-06-14T08:18:57;93665.09;;;23.26;93.86
10261;BME280;5175;42.606;23.388;2023-06-14T08:21:24;93666.84;;;22.80;96.16
10261;BME280;5175;42.606;23.388;2023-06-14T08:23:54;93674.47;;;22.90;96.87
10261;BME280;5175;42.606;23.388;2023-06-14T08:26:21;93666.97;;;22.49;100.00
10261;BME280;5175;42.606;23.388;2023-06-14T08:28:48;93671.28;;;22.34;100.00
10261;BME280;5175;42.606;23.388;2023-06-14T08:31:15;93664.81;;;22.23;100.00
10261;BME280;5175;42.606;23.388;2023-06-14T08:33:42;93669.88;;;22.40;100.00
10261;BME280;5175;42.606;23.388;2023-06-14T08:36:10;93672.03;;;22.00;100.00
10261;BME280;5175;42.606;23.388;2023-06-14T08:38:37;93669.91;;;22.09;100.00
10261;BME280;5175;42.606;23.388;2023-06-14T08:41:05;93670.88;;;22.01;100.00
10261;BME280;5175;42.606;23.388;2023-06-14T08:43:32;93668.53;;;22.00;100.00
10261;BME280;5175;42.606;23.388;2023-06-14T08:46:02;93658.72;;;22.11;100.00
10261;BME280;5175;42.606;23.388;2023-06-14T08:48:30;93659.94;;;22.13;99.06
10261;BME280;5175;42.606;23.388;2023-06-14T08:50:59;93643.84;;;22.24;97.12
10261;BME280;5175;42.606;23.388;2023-06-14T08:53:31;93646.25;;;22.10;97.60
10261;BME280;5175;42.606;23.388;2023-06-14T08:55:59;93650.28;;;22.16;100.00
10261;BME280;5175;42.606;23.388;2023-06-14T08:58:28;93644.06;;;22.15;100.00
10261;BME280;5175;42.606;23.388;2023-06-14T09:00:56;93650.44;;;22.23;100.00
10261;BME280;5175;42.606;23.388;2023-06-14T09:03:24;93661.72;;;22.40;100.00
10261;BME280;5175;42.606;23.388;2023-06-14T09:05:56;93657.91;;;22.26;100.00
10261;BME280;5175;42.606;23.388;2023-06-14T09:08:24;93656.94;;;22.18;99.35
10261;BME280;5175;42.606;23.388;2023-06-14T09:10:53;93656.00;;;22.45;100.00
10261;BME280;5175;42.606;23.388;2023-06-14T09:13:20;93636.47;;;22.24;100.00
10261;BME280;5175;42.606;23.388;2023-06-14T09:15:47;93652.97;;;22.31;100.00
10261;BME280;5175;42.606;23.388;2023-06-14T09:18:14;93660.94;;;22.24;100.00
10261;BME280;5175;42.606;23.388;2023-06-14T09:20:41;93659.09;;;22.44;97.37
10261;BME280;5175;42.606;23.388;2023-06-14T09:23:07;93659.63;;;22.34;99.50
10261;BME280;5175;42.606;23.388;2023-06-14T09:25:42;93650.97;;;22.28;97.45
10261;BME280;5175;42.606;23.388;2023-06-14T09:28:11;93652.81;;;22.09;99.02
10261;BME280;5175;42.606;23.388;2023-06-14T09:30:38;93649.88;;;22.33;100.00
10261;BME280;5175;42.606;23.388;2023-06-14T09:33:05;93641.03;;;22.36;97.76
10261;BME280;5175;42.606;23.388;2023-06-14T09:35:32;93645.81;;;22.23;100.00
10261;BME280;5175;42.606;23.388;2023-06-14T09:37:59;93649.75;;;22.10;100.00
10261;BME280;5175;42.606;23.388;2023-06-14T09:40:26;93644.25;;;22.07;100.00
10261;BME280;5175;42.606;23.388;2023-06-14T09:42:53;93637.19;;;22.21;100.00
10261;BME280;5175;42.606;23.388;2023-06-14T09:45:25;93634.31;;;22.49;97.21
10261;BME280;5175;42.606;23.388;2023-06-14T09:47:55;93635.59;;;22.55;97.48
10261;BME280;5175;42.606;23.388;2023-06-14T09:50:22;93636.69;;;22.85;95.27
10261;BME280;5175;42.606;23.388;2023-06-14T09:52:52;93637.22;;;23.14;93.70
10261;BME280;5175;42.606;23.388;2023-06-14T09:55:19;93640.31;;;23.35;97.12
10261;BME280;5175;42.606;23.388;2023-06-14T09:57:47;93631.13;;;23.62;92.83
10261;BME280;5175;42.606;23.388;2023-06-14T10:00:16;93628.41;;;23.85;88.86
10261;BME280;5175;42.606;23.388;2023-06-14T10:02:53;93642.91;;;24.15;85.99
10261;BME280;5175;42.606;23.388;2023-06-14T10:05:21;93637.41;;;24.38;86.54
10261;BME280;5175;42.606;23.388;2023-06-14T10:07:53;93614.78;;;24.37;83.43
10261;BME280;5175;42.606;23.388;2023-06-14T10:10:22;93640.59;;;24.17;87.51
10261;BME280;5175;42.606;23.388;2023-06-14T10:12:49;93635.00;;;23.38;91.15
10261;BME280;5175;42.606;23.388;2023-06-14T10:15:20;93631.75;;;23.33;94.93
10261;BME280;5175;42.606;23.388;2023-06-14T10:17:55;93611.47;;;23.49;90.16
10261;BME280;5175;42.606;23.388;2023-06-14T10:20:30;93622.09;;;24.03;88.39
10261;BME280;5175;42.606;23.388;2023-06-14T10:23:03;93620.38;;;24.44;84.59
10261;BME280;5175;42.606;23.388;2023-06-14T10:25:34;93626.84;;;24.62;87.15
10261;BME280;5175;42.606;23.388;2023-06-14T10:28:17;93618.38;;;25.01;84.64
10261;BME280;5175;42.606;23.388;2023-06-14T10:31:06;93632.16;;;25.11;83.36
10261;BME280;5175;42.606;23.388;2023-06-14T10:33:35;93625.84;;;25.40;87.88
10261;BME280;5175;42.606;23.388;2023-06-14T10:36:10;93627.50;;;25.48;80.35
10261;BME280;5175;42.606;23.388;2023-06-14T10:38:37;93617.34;;;25.45;82.32
10261;BME280;5175;42.606;23.388;2023-06-14T10:41:05;93624.00;;;25.88;75.29
10261;BME280;5175;42.606;23.388;2023-06-14T10:43:33;93625.44;;;25.38;77.73
10261;BME280;5175;42.606;23.388;2023-06-14T10:46:14;93626.47;;;25.60;76.75
10261;BME280;5175;42.606;23.388;2023-06-14T10:48:43;93627.41;;;25.05;77.03
10261;BME280;5175;42.606;23.388;2023-06-14T10:51:18;93616.00;;;24.96;79.94
10261;BME280;5175;42.606;23.388;2023-06-14T10:53:48;93608.94;;;24.95;77.89
10261;BME280;5175;42.606;23.388;2023-06-14T10:56:27;93611.56;;;24.84;81.07
10261;BME280;5175;42.606;23.388;2023-06-14T10:58:56;93599.09;;;24.86;81.55
10261;BME280;5175;42.606;23.388;2023-06-14T11:01:32;93602.59;;;25.20;77.01
10261;BME280;5175;42.606;23.388;2023-06-14T11:04:12;93594.84;;;24.89;77.79
10261;BME280;5175;42.606;23.388;2023-06-14T11:06:47;93595.91;;;24.51;78.57
10261;BME280;5175;42.606;23.388;2023-06-14T11:09:43;93592.03;;;24.82;83.66
10261;BME280;5175;42.606;23.388;2023-06-14T11:12:15;93587.13;;;25.35;77.88
10261;BME280;5175;42.606;23.388;2023-06-14T11:14:46;93592.78;;;25.96;76.06
10261;BME280;5175;42.606;23.388;2023-06-14T11:17:13;93594.16;;;26.20;67.50
10261;BME280;5175;42.606;23.388;2023-06-14T11:19:41;93589.69;;;26.52;75.03
10261;BME280;5175;42.606;23.388;2023-06-14T11:22:08;93566.44;;;26.25;75.13
10261;BME280;5175;42.606;23.388;2023-06-14T11:24:35;93576.94;;;26.16;71.40
10261;BME280;5175;42.606;23.388;2023-06-14T11:27:02;93584.19;;;25.94;72.62
10261;BME280;5175;42.606;23.388;2023-06-14T11:29:29;93572.66;;;25.68;72.50
10261;BME280;5175;42.606;23.388;2023-06-14T11:31:57;93577.16;;;25.13;74.11
10261;BME280;5175;42.606;23.388;2023-06-14T11:34:24;93582.03;;;24.93;75.00
10261;BME280;5175;42.606;23.388;2023-06-14T11:36:52;93571.56;;;24.69;81.46
10261;BME280;5175;42.606;23.388;2023-06-14T11:39:24;93571.50;;;24.65;79.63
10261;BME280;5175;42.606;23.388;2023-06-14T11:41:51;93570.69;;;24.61;82.21
10261;BME280;5175;42.606;23.388;2023-06-14T11:44:18;93561.53;;;24.76;73.79
10261;BME280;5175;42.606;23.388;2023-06-14T11:46:45;93554.69;;;25.26;75.81
10261;BME280;5175;42.606;23.388;2023-06-14T11:49:11;93557.09;;;25.35;74.85
10261;BME280;5175;42.606;23.388;2023-06-14T11:51:38;93552.06;;;25.40;76.28
10261;BME280;5175;42.606;23.388;2023-06-14T11:54:07;93509.53;;;24.99;76.08
10261;BME280;5175;42.606;23.388;2023-06-14T11:56:34;93542.91;;;25.19;79.53
10261;BME280;5175;42.606;23.388;2023-06-14T11:59:03;93536.03;;;24.95;79.36
10261;BME280;5175;42.606;23.388;2023-06-14T12:01:31;93533.94;;;24.81;76.90
10261;BME280;5175;42.606;23.388;2023-06-14T12:03:59;93527.44;;;24.93;80.67
10261;BME280;5175;42.606;23.388;2023-06-14T12:06:26;93523.28;;;25.06;77.32
10261;BME280;5175;42.606;23.388;2023-06-14T12:08:58;93515.47;;;25.05;77.62
10261;BME280;5175;42.606;23.388;2023-06-14T12:11:32;93517.28;;;24.94;80.51
10261;BME280;5175;42.606;23.388;2023-06-14T12:14:00;93518.97;;;24.72;76.40
10261;BME280;5175;42.606;23.388;2023-06-14T12:16:31;93531.28;;;24.88;76.09
10261;BME280;5175;42.606;23.388;2023-06-14T12:19:00;93534.75;;;24.52;74.05
10261;BME280;5175;42.606;23.388;2023-06-14T12:21:27;93529.94;;;24.75;79.98
10261;BME280;5175;42.606;23.388;2023-06-14T12:23:54;93527.97;;;25.06;78.72
10261;BME280;5175;42.606;23.388;2023-06-14T12:26:21;93513.97;;;25.11;83.20
10261;BME280;5175;42.606;23.388;2023-06-14T12:28:54;93515.44;;;25.45;77.61
10261;BME280;5175;42.606;23.388;2023-06-14T12:31:21;93518.84;;;25.31;75.13
10261;BME280;5175;42.606;23.388;2023-06-14T12:33:48;93517.50;;;25.15;73.36
10261;BME280;5175;42.606;23.388;2023-06-14T12:36:15;93519.53;;;24.51;78.21
10261;BME280;5175;42.606;23.388;2023-06-14T12:38:43;93514.28;;;24.69;80.60
10261;BME280;5175;42.606;23.388;2023-06-14T12:41:11;93511.94;;;24.71;76.79
10261;BME280;5175;42.606;23.388;2023-06-14T12:43:39;93510.06;;;24.12;80.04
10261;BME280;5175;42.606;23.388;2023-06-14T12:46:07;93505.06;;;23.39;94.99
10261;BME280;5175;42.606;23.388;2023-06-14T12:48:34;93501.97;;;22.95;100.00
10261;BME280;5175;42.606;23.388;2023-06-14T12:51:00;93492.53;;;22.89;100.00
10261;BME280;5175;42.606;23.388;2023-06-14T12:53:27;93493.41;;;22.74;100.00
10261;BME280;5175;42.606;23.388;2023-06-14T12:55:54;93489.00;;;22.47;100.00
10261;BME280;5175;42.606;23.388;2023-06-14T12:58:21;93488.72;;;22.32;100.00
10261;BME280;5175;42.606;23.388;2023-06-14T13:00:49;93492.00;;;21.68;100.00
10261;BME280;5175;42.606;23.388;2023-06-14T13:05:59;93495.19;;;21.39;100.00
10261;BME280;5175;42.606;23.388;2023-06-14T13:08:26;93488.38;;;21.14;100.00
10261;BME280;5175;42.606;23.388;2023-06-14T13:10:53;93492.75;;;21.18;100.00
10261;BME280;5175;42.606;23.388;2023-06-14T13:13:20;93499.66;;;20.85;100.00
10261;BME280;5175;42.606;23.388;2023-06-14T13:15:47;93509.03;;;20.44;100.00
10261;BME280;5175;42.606;23.388;2023-06-14T13:18:18;93512.28;;;20.10;100.00
10261;BME280;5175;42.606;23.388;2023-06-14T13:20:53;93509.41;;;19.90;100.00